Time;durP1;ratioP1;P1;durP2;ratioP2;P2;SDS_P1;SDS_P2;PMS_P1;PMS_P2;Temp;Humidity;BMP_temperature;BMP_pressure;BME280_temperature;BME280_humidity;BME280_pressure;Samples;Min_cycle;Max_cycle;Signal;HPM_P1;HPM_P2
2023/12/30 00:01:39;;;;;;;;;;;12.70;55.10;;;12.95;58.08;99956.19;5021630;28;20301;-31
2023/12/30 00:04:07;;;;;;;;;;;12.70;55.00;;;12.98;57.80;99951.50;5016629;28;19932;-33
2023/12/30 00:06:36;;;;;;;;;;;12.80;55.00;;;12.98;57.64;99957.41;5033683;28;20317;-31
2023/12/30 00:09:04;;;;;;;;;;;12.80;54.90;;;13.01;58.08;99949.31;5013414;28;19940;-33
2023/12/30 00:11:32;;;;;;;;;;;12.80;55.50;;;13.01;57.09;99964.41;5028514;28;19956;-32
2023/12/30 00:14:00;;;;;;;;;;;12.80;54.90;;;13.01;57.56;99952.75;5022993;28;19932;-32
2023/12/30 00:16:28;;;;;;;;;;;12.80;54.90;;;13.01;57.68;99971.97;5027925;28;19925;-32
2023/12/30 00:18:56;;;;;;;;;;;12.80;54.90;;;13.00;57.31;99967.66;5024360;28;19929;-32
2023/12/30 00:21:24;;;;;;;;;;;12.80;54.80;;;12.99;58.14;99970.88;5033121;28;19929;-32
2023/12/30 00:23:53;;;;;;;;;;;12.80;54.80;;;12.97;58.22;99968.19;5016962;28;20028;-32
2023/12/30 00:26:21;;;;;;;;;;;12.80;54.90;;;12.93;58.29;99972.72;5020155;28;19925;-31
2023/12/30 00:28:49;;;;;;;;;;;12.70;54.80;;;12.94;57.89;99974.53;5020809;28;19925;-32
2023/12/30 00:31:24;;;;;;;;;;;12.70;54.90;;;12.90;57.68;99989.25;5017565;28;20466;-31
2023/12/30 00:33:52;;;;;;;;;;;12.70;54.90;;;12.88;57.88;99978.16;5027068;28;19925;-33
2023/12/30 00:36:20;;;;;;;;;;;12.70;55.00;;;12.86;58.46;99977.09;5020032;28;19926;-37
2023/12/30 00:38:48;;;;;;;;;;;12.70;55.00;;;12.82;58.46;99956.47;5012399;28;19972;-32
2023/12/30 00:41:17;;;;;;;;;;;12.60;55.00;;;12.83;58.06;99974.25;5020914;28;19931;-32
2023/12/30 00:43:45;;;;;;;;;;;12.60;55.00;;;12.81;57.61;99980.72;5021120;28;20011;-32
2023/12/30 00:46:12;;;;;;;;;;;12.60;55.10;;;12.80;58.65;99978.03;5032610;28;19925;-33
2023/12/30 00:48:40;;;;;;;;;;;12.60;55.10;;;12.79;58.87;99982.16;5023922;28;19929;-34
2023/12/30 00:51:08;;;;;;;;;;;12.60;55.20;;;12.74;58.55;99983.28;5023929;28;20385;-34
2023/12/30 00:53:36;;;;;;;;;;;12.60;55.10;;;12.77;58.57;100003.72;5017418;28;19932;-36
2023/12/30 00:56:04;;;;;;;;;;;12.60;55.20;;;12.71;58.72;99995.50;5023171;28;19925;-30
2023/12/30 00:58:33;;;;;;;;;;;12.60;55.20;;;12.75;57.91;99995.13;5017499;28;20124;-30
2023/12/30 01:01:01;;;;;;;;;;;12.60;55.20;;;12.71;58.98;99990.47;5020573;28;19932;-33
2023/12/30 01:03:29;;;;;;;;;;;12.60;55.20;;;12.73;58.26;100006.63;5018373;28;19936;-32
2023/12/30 01:05:57;;;;;;;;;;;12.60;55.20;;;12.72;58.51;100017.41;5023422;28;20464;-32
2023/12/30 01:08:25;;;;;;;;;;;12.60;55.20;;;12.70;58.26;100026.41;5031821;28;20312;-33
2023/12/30 01:10:53;;;;;;;;;;;12.60;55.20;;;12.70;59.12;100020.47;5024125;28;19925;-34
2023/12/30 01:13:20;;;;;;;;;;;12.50;55.20;;;12.69;58.79;100028.75;5027726;28;19931;-36
2023/12/30 01:15:50;;;;;;;;;;;12.50;55.20;;;12.67;58.38;100058.72;5012591;28;19925;-35
2023/12/30 01:18:18;;;;;;;;;;;12.50;55.20;;;12.67;58.30;100058.72;5027348;28;19926;-32
2023/12/30 01:20:46;;;;;;;;;;;12.50;55.20;;;12.68;58.49;100062.13;5020604;28;19984;-33
2023/12/30 01:23:14;;;;;;;;;;;12.50;55.20;;;12.67;58.56;100066.25;5012206;28;20400;-32
2023/12/30 01:25:42;;;;;;;;;;;12.50;55.20;;;12.68;58.55;100057.09;5020309;28;19925;-31
2023/12/30 01:28:10;;;;;;;;;;;12.50;55.10;;;12.69;58.31;100079.91;5019820;28;19926;-30
2023/12/30 01:30:38;;;;;;;;;;;12.50;55.10;;;12.70;58.11;100091.75;5020697;28;19930;-33
2023/12/30 01:33:07;;;;;;;;;;;12.60;55.10;;;12.71;57.97;100088.50;5020017;28;19929;-31
2023/12/30 01:35:37;;;;;;;;;;;12.60;55.10;;;12.73;58.30;100092.09;5012230;28;19937;-31
2023/12/30 01:38:04;;;;;;;;;;;12.60;55.10;;;12.76;57.75;100102.50;5019794;28;20012;-31
2023/12/30 01:40:33;;;;;;;;;;;12.60;55.00;;;12.78;57.71;100098.53;5018087;28;19925;-35
2023/12/30 01:43:02;;;;;;;;;;;12.60;54.90;;;12.80;57.58;100104.63;5023233;28;19932;-32
2023/12/30 01:45:31;;;;;;;;;;;12.60;54.90;;;12.84;57.98;100105.84;5017900;28;19971;-36
2023/12/30 01:47:59;;;;;;;;;;;12.60;54.80;;;12.86;57.66;100105.31;5027680;28;20379;-31
2023/12/30 01:50:29;;;;;;;;;;;12.70;54.80;;;12.87;57.50;100107.09;5012239;28;20443;-36
2023/12/30 01:52:57;;;;;;;;;;;12.70;54.70;;;12.89;57.89;100104.78;5030492;28;19929;-32
2023/12/30 01:55:24;;;;;;;;;;;12.70;54.70;;;12.90;57.38;100117.50;5015932;28;19929;-32
2023/12/30 01:57:52;;;;;;;;;;;12.70;54.60;;;12.92;57.30;100119.28;5023839;28;19925;-33
2023/12/30 02:00:21;;;;;;;;;;;12.70;54.60;;;12.93;57.54;100141.19;5027328;28;19978;-33
2023/12/30 02:02:49;;;;;;;;;;;12.70;54.50;;;12.92;57.68;100129.34;5027328;28;19957;-32
2023/12/30 02:05:17;;;;;;;;;;;12.70;54.50;;;12.92;57.11;100124.31;5019915;28;19926;-32
2023/12/30 02:07:47;;;;;;;;;;;12.70;54.50;;;12.88;57.96;100134.03;5019921;28;19925;-36
2023/12/30 02:10:15;;;;;;;;;;;12.70;54.50;;;12.90;57.90;100152.69;5027368;28;19925;-31
2023/12/30 02:12:44;;;;;;;;;;;12.70;54.50;;;12.88;57.51;100154.16;5019981;28;19926;-32
2023/12/30 02:15:13;;;;;;;;;;;12.70;54.50;;;12.86;57.82;100150.56;5026537;28;19971;-37
2023/12/30 02:17:41;;;;;;;;;;;12.70;54.50;;;12.85;57.96;100158.81;5026457;28;19925;-32
2023/12/30 02:20:10;;;;;;;;;;;12.70;54.60;;;12.82;57.66;100152.56;5024650;28;20445;-32
2023/12/30 02:22:43;;;;;;;;;;;12.60;54.50;;;12.80;57.54;100154.91;5021755;28;20005;-34
2023/12/30 02:25:11;;;;;;;;;;;12.60;54.50;;;12.78;57.43;100171.41;5026694;28;19933;-31
2023/12/30 02:27:39;;;;;;;;;;;12.60;54.60;;;12.78;58.13;100165.50;5019848;28;19995;-34
2023/12/30 02:30:07;;;;;;;;;;;12.60;54.60;;;12.77;58.22;100168.75;5031442;28;19936;-34
2023/12/30 02:32:35;;;;;;;;;;;12.60;54.60;;;12.74;57.58;100151.69;5016692;28;19926;-31
2023/12/30 02:35:04;;;;;;;;;;;12.60;54.70;;;12.73;58.10;100146.50;5035213;28;20376;-32
2023/12/30 02:37:32;;;;;;;;;;;12.60;54.70;;;12.70;58.41;100144.56;5020867;28;19926;-32
2023/12/30 02:40:01;;;;;;;;;;;12.60;54.70;;;12.71;57.96;100142.94;5015058;28;19926;-31
2023/12/30 02:42:29;;;;;;;;;;;12.60;54.70;;;12.69;58.28;100135.22;5020184;28;19925;-34
2023/12/30 02:44:57;;;;;;;;;;;12.50;54.70;;;12.67;58.04;100141.66;5017629;28;19976;-33
2023/12/30 02:47:25;;;;;;;;;;;12.50;54.60;;;12.67;57.73;100141.66;5022852;28;20024;-33
2023/12/30 02:49:53;;;;;;;;;;;12.50;54.70;;;12.66;58.31;100139.88;5031435;28;19929;-34
2023/12/30 02:52:22;;;;;;;;;;;12.50;54.70;;;12.65;57.90;100149.75;5022636;28;19925;-32
2023/12/30 02:54:50;;;;;;;;;;;12.50;54.70;;;12.63;58.18;100139.53;5022802;28;19925;-33
2023/12/30 02:57:19;;;;;;;;;;;12.50;54.70;;;12.63;58.20;100144.56;5017987;28;20392;-33
2023/12/30 02:59:47;;;;;;;;;;;12.50;54.70;;;12.60;58.16;100149.22;5026913;28;19929;-33
2023/12/30 03:02:15;;;;;;;;;;;12.50;54.70;;;12.60;58.72;100138.28;5022829;28;19926;-34
2023/12/30 03:04:42;;;;;;;;;;;12.50;54.70;;;12.59;58.13;100152.47;5013371;28;19968;-37
2023/12/30 03:07:10;;;;;;;;;;;12.50;54.70;;;12.57;57.28;100145.50;5032711;28;19925;-38
2023/12/30 03:09:38;;;;;;;;;;;12.40;54.60;;;12.59;57.81;100152.47;5034312;28;19936;-32
2023/12/30 03:12:08;;;;;;;;;;;12.40;54.60;;;12.58;57.67;100155.72;5025741;28;19957;-32
2023/12/30 03:14:37;;;;;;;;;;;12.40;54.60;;;12.59;57.53;100152.47;5020107;28;20391;-33
2023/12/30 03:17:05;;;;;;;;;;;12.40;54.60;;;12.60;58.25;100163.41;5015925;28;19925;-34
2023/12/30 03:19:33;;;;;;;;;;;12.40;54.60;;;12.60;57.92;100169.34;5033662;28;20393;-37
2023/12/30 03:22:01;;;;;;;;;;;12.50;54.60;;;12.62;57.48;100172.94;5025702;28;20405;-35
2023/12/30 03:24:29;;;;;;;;;;;12.50;54.60;;;12.64;58.09;100166.47;5025509;28;19925;-37
2023/12/30 03:26:57;;;;;;;;;;;12.50;54.60;;;12.67;57.10;100166.81;5016872;28;20367;-31
2023/12/30 03:29:24;;;;;;;;;;;12.50;54.50;;;12.70;57.63;100167.16;5021935;28;20360;-31
2023/12/30 03:31:54;;;;;;;;;;;12.50;54.50;;;12.74;57.77;100164.28;5014077;28;19979;-32
2023/12/30 03:34:23;;;;;;;;;;;12.50;54.50;;;12.77;58.12;100168.75;5021446;28;19925;-33
2023/12/30 03:36:51;;;;;;;;;;;12.60;54.50;;;12.76;57.25;100162.84;5021607;28;19925;-36
2023/12/30 03:39:19;;;;;;;;;;;12.60;54.40;;;12.82;57.29;100171.06;5013306;28;20270;-31
2023/12/30 03:41:47;;;;;;;;;;;12.60;54.40;;;12.82;57.31;100166.03;5022175;28;20051;-32
2023/12/30 03:44:15;;;;;;;;;;;12.60;54.40;;;12.82;57.12;100172.69;5021629;28;19940;-32
2023/12/30 03:46:42;;;;;;;;;;;12.60;54.30;;;12.84;57.74;100173.72;5022181;28;19926;-30
2023/12/30 03:49:12;;;;;;;;;;;12.60;54.20;;;12.84;57.52;100179.66;5029480;28;19925;-32
2023/12/30 03:51:40;;;;;;;;;;;12.70;54.30;;;12.75;57.60;100166.06;5021818;28;19926;-36
2023/12/30 03:54:08;;;;;;;;;;;12.70;54.30;;;12.80;57.75;100179.16;5014936;28;20036;-33
2023/12/30 03:56:39;;;;;;;;;;;12.60;54.20;;;12.82;56.91;100188.66;5019707;28;19972;-36
2023/12/30 03:59:06;;;;;;;;;;;12.60;54.20;;;12.81;57.30;100191.00;5029297;28;20343;-33
2023/12/30 04:01:35;;;;;;;;;;;12.60;54.30;;;12.78;57.41;100196.56;5013455;28;20016;-32
2023/12/30 04:04:03;;;;;;;;;;;12.60;54.30;;;12.76;56.75;100198.03;5022288;28;19932;-33
2023/12/30 04:06:32;;;;;;;;;;;12.60;54.40;;;12.74;57.79;100194.44;5032702;28;20400;-32
2023/12/30 04:09:00;;;;;;;;;;;12.60;54.40;;;12.73;57.13;100192.63;5015769;28;19929;-34
2023/12/30 04:11:28;;;;;;;;;;;12.60;54.50;;;12.71;57.40;100189.03;5017472;28;19936;-33
2023/12/30 04:13:56;;;;;;;;;;;12.50;54.40;;;12.69;57.80;100185.47;5024529;28;19925;-34
2023/12/30 04:16:24;;;;;;;;;;;12.50;54.50;;;12.67;57.87;100186.91;5012794;28;19926;-36
2023/12/30 04:18:52;;;;;;;;;;;12.50;54.50;;;12.65;57.56;100183.31;5012609;28;19932;-36
2023/12/30 04:21:20;;;;;;;;;;;12.50;54.50;;;12.64;57.71;100186.59;5016325;28;19980;-32
2023/12/30 04:23:49;;;;;;;;;;;12.50;54.50;;;12.63;57.58;100184.78;5024591;28;19929;-31
2023/12/30 04:26:17;;;;;;;;;;;12.50;54.50;;;12.62;57.91;100185.50;5021751;28;19955;-33
2023/12/30 04:28:47;;;;;;;;;;;12.50;54.50;;;12.60;57.63;100199.50;5020774;28;19931;-33
2023/12/30 04:31:15;;;;;;;;;;;12.50;54.60;;;12.56;57.97;100197.38;5020786;28;20305;-34
2023/12/30 04:33:43;;;;;;;;;;;12.40;55.10;;;12.59;58.42;100197.69;5052756;22;20295;-36
2023/12/30 04:36:11;;;;;;;;;;;12.40;54.50;;;12.57;58.05;100209.22;5081406;28;19977;-36
2023/12/30 04:38:38;;;;;;;;;;;12.40;54.50;;;12.54;57.73;100208.84;5092240;28;19924;-36
2023/12/30 04:41:08;;;;;;;;;;;12.40;54.60;;;12.54;57.78;100193.78;5092555;28;19931;-36
2023/12/30 04:43:35;;;;;;;;;;;12.40;54.60;;;12.53;58.59;100202.03;5093063;28;19924;-37
2023/12/30 04:46:03;;;;;;;;;;;12.40;54.60;;;12.48;57.70;100200.59;5083446;28;19924;-36
2023/12/30 04:48:32;;;;;;;;;;;12.40;54.60;;;12.50;57.89;100211.75;5091882;28;20378;-36
2023/12/30 04:51:00;;;;;;;;;;;12.40;54.60;;;12.51;57.75;100208.50;5075978;28;19932;-37
2023/12/30 04:53:28;;;;;;;;;;;12.40;54.70;;;12.51;57.54;100213.53;5080977;28;19924;-36
2023/12/30 04:55:56;;;;;;;;;;;12.30;54.50;;;12.51;57.87;100208.50;5080631;28;19924;-36
2023/12/30 04:58:25;;;;;;;;;;;12.40;54.70;;;12.53;57.95;100212.06;5084597;28;20434;-36
2023/12/30 05:00:53;;;;;;;;;;;12.40;54.60;;;12.54;57.76;100213.88;5077063;28;20005;-36
2023/12/30 05:03:21;;;;;;;;;;;12.40;54.60;;;12.55;58.00;100215.66;5083853;28;20357;-37
2023/12/30 05:05:51;;;;;;;;;;;12.40;55.20;;;12.57;57.20;100221.78;5085233;28;20296;-36
2023/12/30 05:08:18;;;;;;;;;;;12.40;54.50;;;12.59;57.31;100215.28;5079155;28;19924;-36
2023/12/30 05:10:47;;;;;;;;;;;12.40;54.50;;;12.61;57.31;100221.41;5072428;28;19925;-36
2023/12/30 05:13:15;;;;;;;;;;;12.50;54.50;;;12.65;57.84;100218.50;5071881;28;19928;-36
2023/12/30 05:15:44;;;;;;;;;;;12.50;54.50;;;12.69;57.64;100225.69;5086786;28;19973;-36
2023/12/30 05:18:12;;;;;;;;;;;12.50;54.40;;;12.71;57.77;100219.22;5081325;28;20397;-36
2023/12/30 05:20:41;;;;;;;;;;;12.50;54.40;;;12.74;57.19;100217.06;5104139;28;19930;-36
2023/12/30 05:23:09;;;;;;;;;;;12.50;54.30;;;12.79;57.12;100218.47;5111364;28;19991;-36
2023/12/30 05:25:36;;;;;;;;;;;12.60;54.40;;;12.81;57.90;100212.00;5092892;28;19924;-37
2023/12/30 05:28:05;;;;;;;;;;;12.60;54.30;;;12.81;57.33;100222.06;5111742;28;19987;-36
2023/12/30 05:30:33;;;;;;;;;;;12.60;54.30;;;12.81;57.16;100216.16;5104850;28;19997;-36
2023/12/30 05:33:02;;;;;;;;;;;12.60;54.20;;;12.80;57.11;100229.44;5103178;28;19909;-37
2023/12/30 05:35:30;;;;;;;;;;;12.60;54.20;;;12.81;57.26;100227.09;5106288;28;19924;-36
2023/12/30 05:37:58;;;;;;;;;;;12.60;54.20;;;12.81;57.87;100236.25;5094794;28;19924;-36
2023/12/30 05:40:26;;;;;;;;;;;12.70;54.20;;;12.80;57.00;100245.41;5092863;28;20372;-36
2023/12/30 05:42:54;;;;;;;;;;;12.60;54.10;;;12.80;57.62;100254.56;5085008;28;19928;-36
2023/12/30 05:45:21;;;;;;;;;;;12.60;54.20;;;12.78;57.93;100249.34;5091532;28;20311;-36
2023/12/30 05:47:49;;;;;;;;;;;12.60;54.20;;;12.77;57.65;100267.66;5095985;28;19924;-35
2023/12/30 05:50:19;;;;;;;;;;;12.60;54.20;;;12.74;57.33;100264.81;5087916;28;19924;-37
2023/12/30 05:52:48;;;;;;;;;;;12.60;54.30;;;12.73;57.15;100258.00;5087990;28;19931;-36
2023/12/30 05:55:16;;;;;;;;;;;12.60;54.30;;;12.72;58.18;100261.22;5069264;28;20335;-37
2023/12/30 05:57:44;;;;;;;;;;;12.60;54.30;;;12.71;57.51;100268.63;5089965;28;19924;-36
2023/12/30 06:00:13;;;;;;;;;;;12.50;54.20;;;12.68;57.86;100269.16;5088151;28;20360;-37
2023/12/30 06:02:41;;;;;;;;;;;12.50;54.30;;;12.68;58.05;100271.66;5082684;28;20015;-36
2023/12/30 06:05:09;;;;;;;;;;;12.50;54.30;;;12.68;57.66;100274.16;5084662;28;19928;-36
2023/12/30 06:07:39;;;;;;;;;;;12.50;54.30;;;12.67;57.69;100276.50;5082452;28;19924;-36
2023/12/30 06:10:08;;;;;;;;;;;12.50;54.30;;;12.65;57.60;100276.31;5075631;28;20445;-36
2023/12/30 06:12:36;;;;;;;;;;;12.50;54.30;;;12.64;58.19;100282.09;5084296;28;19924;-36
2023/12/30 06:15:04;;;;;;;;;;;12.50;54.30;;;12.62;57.48;100281.00;5092168;28;20298;-36
2023/12/30 06:17:32;;;;;;;;;;;12.50;54.30;;;12.61;57.71;100285.84;5083351;28;19924;-36
2023/12/30 06:20:00;;;;;;;;;;;12.50;54.30;;;12.61;57.76;100285.84;5084181;28;19981;-36
2023/12/30 06:22:28;;;;;;;;;;;12.40;54.30;;;12.57;57.11;100284.59;5084358;28;19924;-36
2023/12/30 06:24:58;;;;;;;;;;;12.40;54.30;;;12.56;56.81;100286.94;5082507;28;19930;-36
2023/12/30 06:27:25;;;;;;;;;;;12.40;54.90;;;12.53;57.83;100287.47;5075383;28;19924;-36
2023/12/30 06:29:53;;;;;;;;;;;12.40;54.30;;;12.52;57.12;100293.19;5075274;28;19929;-36
2023/12/30 06:32:21;;;;;;;;;;;12.40;54.40;;;12.51;57.53;100304.00;5083480;28;19924;-34
2023/12/30 06:34:49;;;;;;;;;;;12.40;54.40;;;12.50;57.84;100312.25;5082156;28;19931;-36
2023/12/30 06:37:17;;;;;;;;;;;12.30;54.40;;;12.50;58.18;100312.25;5085211;28;19931;-36
2023/12/30 06:39:45;;;;;;;;;;;12.40;54.40;;;12.51;57.46;100303.09;5082048;28;19924;-34
2023/12/30 06:42:15;;;;;;;;;;;12.30;54.30;;;12.49;57.77;100305.44;5075643;28;19928;-37
2023/12/30 06:44:42;;;;;;;;;;;12.30;54.30;;;12.49;57.88;100310.47;5074805;28;19924;-36
2023/12/30 06:47:12;;;;;;;;;;;12.40;54.40;;;12.51;56.85;100314.06;5076077;28;19928;-36
2023/12/30 06:49:40;;;;;;;;;;;12.30;54.30;;;12.53;57.38;100317.63;5076960;28;20391;-37
2023/12/30 06:52:08;;;;;;;;;;;12.40;54.30;;;12.53;57.13;100320.13;5084033;28;20402;-36
2023/12/30 06:54:36;;;;;;;;;;;12.40;54.30;;;12.56;57.50;100323.03;5087649;28;20284;-36
2023/12/30 06:57:04;;;;;;;;;;;12.40;54.30;;;12.57;57.15;100324.81;5086985;28;19934;-36
2023/12/30 06:59:34;;;;;;;;;;;12.40;54.30;;;12.59;57.43;100318.34;5066658;28;20383;-36
2023/12/30 07:02:02;;;;;;;;;;;12.40;54.20;;;12.62;57.30;100318.72;5074951;28;20406;-35
2023/12/30 07:04:30;;;;;;;;;;;12.50;54.20;;;12.66;57.40;100323.34;5074829;28;20235;-35
2023/12/30 07:06:58;;;;;;;;;;;12.50;54.20;;;12.67;57.09;100327.66;5081928;28;19927;-36
2023/12/30 07:09:26;;;;;;;;;;;12.50;54.10;;;12.68;57.43;100337.00;5094318;28;20388;-36
2023/12/30 07:11:54;;;;;;;;;;;12.50;54.10;;;12.69;57.53;100335.41;5088166;28;19935;-35
2023/12/30 07:14:22;;;;;;;;;;;12.50;54.00;;;12.71;57.02;100339.88;5074604;28;19929;-35
2023/12/30 07:16:51;;;;;;;;;;;12.50;54.00;;;12.75;56.56;100341.13;5074784;28;19924;-35
2023/12/30 07:19:19;;;;;;;;;;;12.60;54.00;;;12.75;57.71;100351.19;5074093;28;19929;-36
2023/12/30 07:21:47;;;;;;;;;;;12.60;54.00;;;12.76;57.29;100343.84;5074608;28;20323;-36
2023/12/30 07:24:15;;;;;;;;;;;12.60;54.00;;;12.76;57.31;100351.38;5075460;28;19931;-35
2023/12/30 07:26:43;;;;;;;;;;;12.60;53.90;;;12.78;57.26;100354.94;5094414;28;20003;-36
2023/12/30 07:29:11;;;;;;;;;;;12.60;54.00;;;12.76;56.95;100356.41;5077079;28;19982;-36
2023/12/30 07:31:40;;;;;;;;;;;12.60;54.00;;;12.78;56.90;100356.56;5083118;28;19925;-35
2023/12/30 07:34:10;;;;;;;;;;;12.60;54.00;;;12.78;57.45;100357.47;5082169;28;19928;-35
2023/12/30 07:36:37;;;;;;;;;;;12.60;54.00;;;12.75;56.87;100357.13;5073160;28;19924;-35
2023/12/30 07:39:05;;;;;;;;;;;12.50;53.90;;;12.73;57.47;100348.50;5080852;28;19932;-36
2023/12/30 07:41:33;;;;;;;;;;;12.60;54.00;;;12.69;57.20;100351.38;5065069;28;20296;-36
2023/12/30 07:44:01;;;;;;;;;;;12.60;54.10;;;12.72;57.46;100351.72;5089560;28;19946;-38
2023/12/30 07:46:29;;;;;;;;;;;12.50;54.00;;;12.72;57.51;100354.22;5074094;28;20015;-36
2023/12/30 07:48:57;;;;;;;;;;;12.50;54.00;;;12.70;57.22;100363.22;5088454;28;20273;-35
2023/12/30 07:51:26;;;;;;;;;;;12.50;54.00;;;12.65;57.03;100364.28;5092298;28;20399;-42
2023/12/30 07:53:54;;;;;;;;;;;12.50;54.00;;;12.66;56.99;100371.13;5084790;28;20042;-35
2023/12/30 07:56:22;;;;;;;;;;;12.50;54.00;;;12.66;57.31;100370.22;5100410;28;19936;-35
2023/12/30 07:58:50;;;;;;;;;;;12.50;54.00;;;12.65;57.50;100371.81;5105078;28;19924;-35
2023/12/30 08:01:18;;;;;;;;;;;12.50;54.00;;;12.62;58.03;100370.59;5092227;28;19924;-35
2023/12/30 08:03:46;;;;;;;;;;;12.50;54.10;;;12.62;57.42;100371.50;5078336;28;20015;-35
2023/12/30 08:06:14;;;;;;;;;;;12.50;54.10;;;12.60;57.34;100380.44;5084084;28;20047;-35
2023/12/30 08:08:44;;;;;;;;;;;12.50;54.10;;;12.58;57.17;100384.44;5076838;28;19946;-35
2023/12/30 08:11:12;;;;;;;;;;;12.40;54.10;;;12.56;57.22;100383.34;5084205;28;19925;-35
2023/12/30 08:13:40;;;;;;;;;;;12.40;54.10;;;12.54;57.58;100384.75;5093077;28;19924;-35
2023/12/30 08:16:08;;;;;;;;;;;12.40;54.10;;;12.52;56.98;100396.25;5085003;28;19967;-35
2023/12/30 08:18:36;;;;;;;;;;;12.40;54.10;;;12.50;57.68;100382.63;5067944;28;19928;-36
2023/12/30 08:21:04;;;;;;;;;;;12.40;54.20;;;12.50;56.83;100392.66;5077425;28;19955;-35
2023/12/30 08:23:32;;;;;;;;;;;12.30;54.10;;;12.47;56.93;100387.25;5075756;28;19924;-36
2023/12/30 08:26:01;;;;;;;;;;;12.30;54.10;;;12.46;57.75;100390.50;5084571;28;20276;-35
2023/12/30 08:28:29;;;;;;;;;;;12.30;54.10;;;12.46;57.51;100395.50;5083590;28;19925;-36
2023/12/30 08:30:59;;;;;;;;;;;12.30;54.10;;;12.46;57.19;100400.53;5085966;28;19978;-36
2023/12/30 08:33:27;;;;;;;;;;;12.30;54.10;;;12.49;56.71;100395.91;5081255;28;19966;-35
2023/12/30 08:35:55;;;;;;;;;;;12.30;54.10;;;12.48;56.94;100399.13;5011326;28;1743731;-36
2023/12/30 08:38:23;;;;;;;;;;;12.30;54.10;;;12.50;57.74;100407.75;5072346;28;19924;-36
2023/12/30 08:40:50;;;;;;;;;;;12.30;54.10;;;12.52;57.73;100411.31;5072975;28;19925;-36
2023/12/30 08:43:20;;;;;;;;;;;12.40;54.20;;;12.54;57.84;100407.38;5072584;28;19925;-36
2023/12/30 08:45:48;;;;;;;;;;;12.40;54.10;;;12.58;57.13;100408.66;5072582;28;20391;-36
2023/12/30 08:48:16;;;;;;;;;;;12.40;54.10;;;12.62;57.59;100405.78;5072704;28;19982;-36
2023/12/30 08:50:44;;;;;;;;;;;12.40;54.00;;;12.63;56.73;100408.47;5089091;28;19972;-36
2023/12/30 08:53:12;;;;;;;;;;;12.50;54.00;;;12.66;56.68;100421.38;5089373;28;20056;-36
2023/12/30 08:55:40;;;;;;;;;;;12.50;54.00;;;12.69;56.53;100423.38;5092362;28;20302;-36
2023/12/30 08:58:08;;;;;;;;;;;12.50;53.90;;;12.70;56.74;100418.53;5076037;28;19978;-36
2023/12/30 09:00:38;;;;;;;;;;;12.50;53.90;;;12.74;56.17;100420.69;5080587;28;20489;-36
2023/12/30 09:03:06;;;;;;;;;;;12.50;53.90;;;12.75;56.62;100430.03;5081014;28;19935;-36
2023/12/30 09:05:34;;;;;;;;;;;12.60;53.90;;;12.77;57.26;100430.22;5080506;28;19924;-36
2023/12/30 09:08:03;;;;;;;;;;;12.60;53.80;;;12.78;57.10;100442.03;5071987;28;19924;-36
2023/12/30 09:10:32;;;;;;;;;;;12.60;53.80;;;12.78;56.38;100447.06;5077911;28;19925;-36
2023/12/30 09:13:00;;;;;;;;;;;12.60;53.80;;;12.80;57.10;100441.50;5073627;28;19979;-36
2023/12/30 09:15:28;;;;;;;;;;;12.60;53.80;;;12.80;56.94;100465.75;5073242;28;19931;-36
2023/12/30 09:17:58;;;;;;;;;;;12.60;53.80;;;12.78;57.10;100453.00;5080042;28;20038;-36
2023/12/30 09:20:27;;;;;;;;;;;12.60;53.80;;;12.79;57.39;100464.84;5082171;28;20015;-36
2023/12/30 09:22:54;;;;;;;;;;;12.60;53.80;;;12.78;57.39;100463.06;5084235;28;19928;-36
2023/12/30 09:25:24;;;;;;;;;;;12.60;53.90;;;12.76;57.45;100464.50;5073701;28;20011;-36
2023/12/30 09:27:52;;;;;;;;;;;12.60;53.90;;;12.74;57.09;100476.00;5076293;28;19924;-36
2023/12/30 09:30:20;;;;;;;;;;;12.60;53.90;;;12.74;57.10;100475.09;5091858;28;19924;-39
2023/12/30 09:32:48;;;;;;;;;;;12.60;53.90;;;12.74;56.57;100481.00;5076713;28;19924;-37
2023/12/30 09:35:17;;;;;;;;;;;12.60;54.00;;;12.72;56.32;100482.44;5080327;28;19932;-37
2023/12/30 09:37:45;;;;;;;;;;;12.60;53.90;;;12.71;56.71;100490.69;5084162;28;19932;-35
2023/12/30 09:40:13;;;;;;;;;;;12.60;54.00;;;12.70;57.18;100493.94;5077114;28;20380;-36
2023/12/30 09:42:43;;;;;;;;;;;12.60;54.00;;;12.70;56.67;100493.06;5077665;28;19932;-37
2023/12/30 09:45:10;;;;;;;;;;;12.60;54.00;;;12.68;57.20;100500.41;5090265;28;20007;-36
2023/12/30 09:47:38;;;;;;;;;;;12.50;53.80;;;12.68;56.84;100502.91;5077938;28;20005;-36
2023/12/30 09:50:07;;;;;;;;;;;12.50;53.80;;;12.66;57.20;100501.81;5076366;28;20399;-36
2023/12/30 09:52:36;;;;;;;;;;;12.50;53.90;;;12.65;57.26;100502.53;5071415;28;20469;-36
2023/12/30 09:55:05;;;;;;;;;;;12.50;53.90;;;12.64;57.18;100507.41;5078328;28;19999;-37
2023/12/30 09:57:33;;;;;;;;;;;12.50;53.90;;;12.61;57.75;100502.91;5063818;28;19936;-36
2023/12/30 10:00:01;;;;;;;;;;;12.50;54.00;;;12.60;57.02;100502.72;5079774;28;19925;-37
2023/12/30 10:02:29;;;;;;;;;;;12.50;54.00;;;12.58;57.30;100505.06;5079693;28;19931;-36
2023/12/30 10:04:57;;;;;;;;;;;12.40;54.00;;;12.56;57.67;100498.94;5077127;28;19928;-36
2023/12/30 10:07:24;;;;;;;;;;;12.40;54.00;;;12.56;57.49;100496.44;5081368;28;19932;-36
2023/12/30 10:09:54;;;;;;;;;;;12.40;54.00;;;12.55;57.38;100499.66;5071410;28;19925;-36
2023/12/30 10:12:22;;;;;;;;;;;12.40;54.00;;;12.54;57.43;100500.38;5080734;28;19924;-36
2023/12/30 10:14:50;;;;;;;;;;;12.40;54.00;;;12.53;57.48;100496.06;5081842;28;19925;-35
2023/12/30 10:17:18;;;;;;;;;;;12.40;54.10;;;12.54;57.17;100500.38;5091465;28;19974;-36
2023/12/30 10:19:46;;;;;;;;;;;12.40;54.00;;;12.54;57.34;100505.38;5087169;28;19924;-36
2023/12/30 10:22:14;;;;;;;;;;;12.40;54.00;;;12.55;56.52;100507.19;5078866;28;19924;-36
2023/12/30 10:24:42;;;;;;;;;;;12.40;54.10;;;12.55;57.57;100493.72;5083445;28;20267;-36
2023/12/30 10:27:12;;;;;;;;;;;12.40;54.10;;;12.57;57.67;100510.81;5090742;28;19928;-36
2023/12/30 10:29:40;;;;;;;;;;;12.40;54.00;;;12.58;57.44;100501.66;5083344;28;20445;-35
2023/12/30 10:32:21;;;;;;;;;;;12.40;54.00;;;12.61;57.47;100507.94;5083223;28;20039;-36
2023/12/30 10:34:49;;;;;;;;;;;12.40;53.90;;;12.64;57.26;100497.34;5086280;22;19960;-32
2023/12/30 10:37:17;;;;;;;;;;;12.50;53.90;;;12.67;57.33;100497.69;5074678;28;20027;-39
2023/12/30 10:39:45;;;;;;;;;;;12.50;53.90;;;12.70;57.30;100493.94;5075978;28;19931;-33
2023/12/30 10:42:15;;;;;;;;;;;12.50;54.40;;;12.73;56.60;100501.84;5075317;28;19925;-34
2023/12/30 10:44:43;;;;;;;;;;;12.60;53.90;;;12.76;56.92;100494.69;5071621;28;19925;-35
2023/12/30 10:47:11;;;;;;;;;;;12.60;53.90;;;12.79;56.11;100490.00;5070433;28;19946;-31
2023/12/30 10:49:39;;;;;;;;;;;12.60;53.80;;;12.76;56.56;100474.56;5074641;28;19936;-35
2023/12/30 10:52:08;;;;;;;;;;;12.60;53.80;;;12.82;56.56;100475.28;5074990;28;20391;-32
2023/12/30 10:54:39;;;;;;;;;;;12.60;53.70;;;12.84;56.61;100473.81;5057737;28;20375;-31
2023/12/30 10:57:07;;;;;;;;;;;12.70;53.70;;;12.85;56.83;100470.59;5068491;28;20023;-35
2023/12/30 10:59:36;;;;;;;;;;;12.70;53.70;;;12.86;56.90;100472.41;5065022;28;19925;-32
2023/12/30 11:02:04;;;;;;;;;;;12.70;53.70;;;12.88;56.59;100473.50;5075525;28;19925;-32
2023/12/30 11:04:33;;;;;;;;;;;12.70;53.70;;;12.67;56.68;100447.44;5073523;28;19924;-32
2023/12/30 11:07:01;;;;;;;;;;;12.70;53.70;;;12.89;56.45;100482.84;5068725;28;20303;-33
2023/12/30 11:09:29;;;;;;;;;;;12.70;53.70;;;12.85;56.60;100480.66;5074356;28;19936;-32
2023/12/30 11:12:00;;;;;;;;;;;12.70;53.70;;;12.85;57.05;100485.69;5061710;28;19993;-33
2023/12/30 11:14:28;;;;;;;;;;;12.70;53.80;;;12.84;56.93;100493.94;5064261;28;19947;-34